createdAt,value
2018-01-29T00:00:54.041Z,3.30
2018-01-29T00:06:03.548Z,3.67
2018-01-29T00:08:31.045Z,3.30
2018-01-29T00:10:58.605Z,3.57
2018-01-29T00:13:26.172Z,3.70
2018-01-29T00:15:53.650Z,3.00
2018-01-29T00:18:21.726Z,3.10
2018-01-29T00:20:49.244Z,3.30
2018-01-29T00:23:18.683Z,3.60
2018-01-29T00:25:46.216Z,3.10
2018-01-29T00:28:13.695Z,3.43
2018-01-29T00:30:41.227Z,3.43
2018-01-29T00:33:08.784Z,3.10
2018-01-29T00:35:37.238Z,2.90
2018-01-29T00:38:05.739Z,3.47
2018-01-29T00:40:33.234Z,2.97
2018-01-29T00:43:00.713Z,2.93
2018-01-29T00:45:28.224Z,3.10
2018-01-29T00:47:55.901Z,3.00
2018-01-29T00:50:23.446Z,3.07
2018-01-29T00:52:51.001Z,3.00
2018-01-29T00:55:18.544Z,3.00
2018-01-29T00:57:46.114Z,2.93
2018-01-29T01:00:13.578Z,2.70
2018-01-29T01:02:41.036Z,2.90
2018-01-29T01:05:08.523Z,2.80
2018-01-29T01:07:36.717Z,2.90
2018-01-29T01:10:04.438Z,2.73
2018-01-29T01:12:32.039Z,2.60
2018-01-29T01:14:59.603Z,2.40
2018-01-29T01:17:27.166Z,2.60
2018-01-29T01:19:55.080Z,2.63
2018-01-29T01:22:22.606Z,2.83
2018-01-29T01:24:50.173Z,2.60
2018-01-29T01:27:17.803Z,2.80
2018-01-29T01:29:45.451Z,2.50
2018-01-29T01:32:12.997Z,2.70
2018-01-29T01:34:40.547Z,2.60
2018-01-29T01:37:08.111Z,2.47
2018-01-29T01:39:35.603Z,2.57
2018-01-29T01:42:03.201Z,2.90
2018-01-29T01:44:30.673Z,3.10
2018-01-29T01:46:58.150Z,2.73
2018-01-29T01:49:32.188Z,2.80
2018-01-29T01:51:59.664Z,2.70
2018-01-29T01:54:27.143Z,2.70
2018-01-29T01:56:54.619Z,2.57
2018-01-29T01:59:22.118Z,2.87
2018-01-29T02:01:49.608Z,2.67
2018-01-29T02:04:17.152Z,2.50
2018-01-29T02:06:44.680Z,2.50
2018-01-29T02:09:13.093Z,2.70
2018-01-29T02:11:41.579Z,2.70
2018-01-29T02:14:09.082Z,2.63
2018-01-29T02:16:36.643Z,2.70
2018-01-29T02:19:04.110Z,2.80
2018-01-29T02:21:31.583Z,2.60
2018-01-29T02:23:59.058Z,2.73
2018-01-29T02:26:26.541Z,2.83
2018-01-29T02:28:54.012Z,2.97
2018-01-29T02:31:21.516Z,2.70
2018-01-29T02:33:49.002Z,3.17
2018-01-29T02:36:16.501Z,2.60
2018-01-29T02:38:44.065Z,2.93
2018-01-29T02:41:11.567Z,2.80
2018-01-29T02:43:39.045Z,2.83
2018-01-29T02:46:06.537Z,3.20
2018-01-29T02:48:34.387Z,3.17
2018-01-29T02:51:01.842Z,2.80
2018-01-29T02:53:29.954Z,2.63
2018-01-29T02:55:57.476Z,3.10
2018-01-29T02:58:24.931Z,3.00
2018-01-29T03:00:52.415Z,2.80
2018-01-29T03:03:19.878Z,2.80
2018-01-29T03:05:47.425Z,3.07
2018-01-29T03:08:14.968Z,3.10
2018-01-29T03:10:42.572Z,2.80
2018-01-29T03:13:10.063Z,2.70
2018-01-29T03:15:37.670Z,2.67
2018-01-29T03:18:05.151Z,3.07
2018-01-29T03:20:32.664Z,3.00
2018-01-29T03:23:00.112Z,2.87
2018-01-29T03:25:27.781Z,2.57
2018-01-29T03:27:56.175Z,2.80
2018-01-29T03:30:24.598Z,2.37
2018-01-29T03:32:52.083Z,2.50
2018-01-29T03:35:19.599Z,2.23
2018-01-29T03:37:47.079Z,2.30
2018-01-29T03:40:14.876Z,2.17
2018-01-29T03:42:42.429Z,2.30
2018-01-29T03:45:09.861Z,2.63
2018-01-29T03:47:37.326Z,2.40
2018-01-29T03:50:04.792Z,2.43
2018-01-29T03:52:33.197Z,2.50
2018-01-29T03:55:01.560Z,2.60
2018-01-29T03:57:29.068Z,2.43
2018-01-29T03:59:57.419Z,2.40
2018-01-29T04:02:24.866Z,2.40
2018-01-29T04:04:52.346Z,2.70
2018-01-29T04:07:19.840Z,2.47
2018-01-29T04:09:47.358Z,2.70
2018-01-29T04:12:14.886Z,2.50
2018-01-29T04:14:42.427Z,2.23
2018-01-29T04:17:09.979Z,2.20
2018-01-29T04:19:37.557Z,2.20
2018-01-29T04:22:05.139Z,2.50
2018-01-29T04:24:32.591Z,2.10
2018-01-29T04:27:00.096Z,1.87
2018-01-29T04:29:27.547Z,2.00
2018-01-29T04:31:55.037Z,2.10
2018-01-29T04:34:41.750Z,2.20
2018-01-29T04:37:09.674Z,2.20
2018-01-29T04:39:37.166Z,2.00
2018-01-29T04:42:04.628Z,2.10
2018-01-29T04:44:32.086Z,2.20
2018-01-29T04:47:00.413Z,2.10
2018-01-29T04:49:27.957Z,2.50
2018-01-29T04:51:55.424Z,2.10
2018-01-29T04:54:22.969Z,1.90
2018-01-29T04:56:50.428Z,2.00
2018-01-29T04:59:17.954Z,2.13
2018-01-29T05:01:45.463Z,2.10
2018-01-29T05:04:12.998Z,2.00
2018-01-29T05:06:40.484Z,2.10
2018-01-29T05:09:08.022Z,1.77
2018-01-29T05:11:35.598Z,2.17
2018-01-29T05:14:03.818Z,1.63
2018-01-29T05:16:31.303Z,2.03
2018-01-29T05:18:58.847Z,1.90
2018-01-29T05:21:26.319Z,1.97
2018-01-29T05:23:53.789Z,2.30
2018-01-29T05:26:21.266Z,1.90
2018-01-29T05:28:48.790Z,2.13
2018-01-29T05:31:16.226Z,2.00
2018-01-29T05:33:43.822Z,2.00
2018-01-29T05:36:11.347Z,2.10
2018-01-29T05:38:38.845Z,2.10
2018-01-29T05:41:06.316Z,2.43
2018-01-29T05:43:33.851Z,2.00
2018-01-29T05:46:01.404Z,1.87
2018-01-29T05:48:28.905Z,1.80
2018-01-29T05:50:56.422Z,2.00
2018-01-29T05:53:23.891Z,1.60
2018-01-29T05:55:51.438Z,2.00
2018-01-29T05:58:18.966Z,1.80
2018-01-29T06:00:46.462Z,1.77
2018-01-29T06:03:14.000Z,1.87
2018-01-29T06:05:41.610Z,1.90
2018-01-29T06:08:09.145Z,1.80
2018-01-29T06:10:36.774Z,1.90
2018-01-29T06:13:04.326Z,1.63
2018-01-29T06:15:31.785Z,1.80
2018-01-29T06:17:59.290Z,1.90
2018-01-29T06:20:26.805Z,1.77
2018-01-29T06:22:54.305Z,1.83
2018-01-29T06:25:21.768Z,1.70
2018-01-29T06:27:49.242Z,1.90
2018-01-29T06:30:16.975Z,1.80
2018-01-29T06:32:44.488Z,1.90
2018-01-29T06:35:11.988Z,2.17
2018-01-29T06:37:40.670Z,1.90
2018-01-29T06:40:09.047Z,2.13
2018-01-29T06:42:36.509Z,2.17
2018-01-29T06:45:03.982Z,1.90
2018-01-29T06:47:32.143Z,2.00
2018-01-29T06:49:59.671Z,1.90
2018-01-29T06:52:27.346Z,1.93
2018-01-29T06:54:54.829Z,1.77
2018-01-29T06:57:22.417Z,1.93
2018-01-29T06:59:49.908Z,1.70
2018-01-29T07:02:18.063Z,2.10
2018-01-29T07:04:45.599Z,1.80
2018-01-29T07:07:13.188Z,1.93
2018-01-29T07:09:40.725Z,1.77
2018-01-29T07:12:08.324Z,1.87
2018-01-29T07:14:35.840Z,1.70
2018-01-29T07:17:03.376Z,1.87
2018-01-29T07:19:30.974Z,1.97
2018-01-29T07:21:58.515Z,1.97
2018-01-29T07:24:26.666Z,1.80
2018-01-29T07:26:54.220Z,2.03
2018-01-29T07:29:21.779Z,2.03
2018-01-29T07:31:49.302Z,1.90
2018-01-29T07:34:16.947Z,2.07
2018-01-29T07:36:44.467Z,1.90
2018-01-29T07:39:12.048Z,2.00
2018-01-29T07:41:39.608Z,2.00
2018-01-29T07:44:07.111Z,2.20
2018-01-29T07:46:34.631Z,2.67
2018-01-29T07:49:02.159Z,2.10
2018-01-29T07:51:29.757Z,2.30
2018-01-29T07:53:57.286Z,2.03
2018-01-29T07:56:24.845Z,2.00
2018-01-29T07:58:52.419Z,1.90
2018-01-29T08:01:20.035Z,1.93
2018-01-29T08:03:47.519Z,2.17
2018-01-29T08:06:17.018Z,1.90
2018-01-29T08:08:44.625Z,2.10
2018-01-29T08:11:12.209Z,2.13
2018-01-29T08:13:39.806Z,1.80
2018-01-29T08:16:07.361Z,1.77
2018-01-29T08:18:34.993Z,1.80
2018-01-29T08:21:02.465Z,1.70
2018-01-29T08:23:29.974Z,1.90
2018-01-29T08:25:57.585Z,1.90
2018-01-29T08:28:25.137Z,1.83
2018-01-29T08:30:52.737Z,1.70
2018-01-29T08:33:20.241Z,2.17
2018-01-29T08:35:47.852Z,1.90
2018-01-29T08:38:15.488Z,1.80
2018-01-29T08:40:43.106Z,1.70
2018-01-29T08:43:10.721Z,2.10
2018-01-29T08:45:43.388Z,1.80
2018-01-29T08:48:10.943Z,2.20
2018-01-29T08:50:38.636Z,2.30
2018-01-29T08:53:06.361Z,1.80
2018-01-29T08:55:34.188Z,1.90
2018-01-29T08:58:01.760Z,2.00
2018-01-29T09:00:29.276Z,2.03
2018-01-29T09:02:57.028Z,2.00
2018-01-29T09:05:24.582Z,1.80
2018-01-29T09:07:52.128Z,2.33
2018-01-29T09:10:19.736Z,2.20
2018-01-29T09:12:47.374Z,2.20
2018-01-29T09:15:14.928Z,1.90
2018-01-29T09:17:42.567Z,2.10
2018-01-29T09:20:10.074Z,2.07
2018-01-29T09:22:37.681Z,1.80
2018-01-29T09:25:10.226Z,2.40
2018-01-29T09:27:39.887Z,1.80
2018-01-29T09:30:07.488Z,2.33
2018-01-29T09:32:35.726Z,1.90
2018-01-29T09:37:56.266Z,1.90
2018-01-29T09:40:23.884Z,2.10
2018-01-29T09:42:51.443Z,2.20
2018-01-29T09:45:18.965Z,1.70
2018-01-29T09:47:46.560Z,1.97
2018-01-29T09:50:14.066Z,1.90
2018-01-29T09:52:41.594Z,2.47
2018-01-29T09:58:02.117Z,1.80
2018-01-29T10:00:29.590Z,1.80
2018-01-29T10:02:57.216Z,2.00
2018-01-29T10:05:24.729Z,2.00
2018-01-29T10:07:52.251Z,2.00
2018-01-29T10:10:19.813Z,2.10
2018-01-29T10:12:47.288Z,2.10
2018-01-29T10:15:14.807Z,2.00
2018-01-29T10:17:42.316Z,2.20
2018-01-29T10:20:09.867Z,2.10
2018-01-29T10:22:37.415Z,1.97
2018-01-29T10:25:05.028Z,2.10
2018-01-29T10:27:32.580Z,2.30
2018-01-29T10:30:00.110Z,2.27
2018-01-29T10:32:27.618Z,2.03
2018-01-29T10:34:55.196Z,2.00
2018-01-29T10:37:22.660Z,2.00
2018-01-29T10:39:50.140Z,2.10
2018-01-29T10:42:17.674Z,2.10
2018-01-29T10:44:45.342Z,1.93
2018-01-29T10:47:12.816Z,2.30
2018-01-29T10:49:40.450Z,2.40
2018-01-29T10:52:08.090Z,2.20
2018-01-29T10:54:35.654Z,2.07
2018-01-29T10:57:03.200Z,2.53
2018-01-29T10:59:30.796Z,2.10
2018-01-29T11:02:03.742Z,2.10
2018-01-29T11:04:31.232Z,1.90
2018-01-29T11:06:58.758Z,2.00
2018-01-29T11:09:26.213Z,2.40
2018-01-29T11:11:53.806Z,1.90
2018-01-29T11:14:21.356Z,1.90
2018-01-29T11:16:48.919Z,2.23
2018-01-29T11:19:16.499Z,2.33
2018-01-29T11:21:43.991Z,2.20
2018-01-29T11:24:11.456Z,2.10
2018-01-29T11:26:39.091Z,2.03
2018-01-29T11:29:06.739Z,2.17
2018-01-29T11:31:34.309Z,2.10
2018-01-29T11:34:01.878Z,2.20
2018-01-29T11:36:29.436Z,2.20
2018-01-29T11:38:57.142Z,2.10
2018-01-29T11:41:24.714Z,2.13
2018-01-29T11:43:52.288Z,2.13
2018-01-29T11:46:19.982Z,1.90
2018-01-29T11:48:47.590Z,2.20
2018-01-29T11:51:15.096Z,2.07
2018-01-29T11:53:42.656Z,2.13
2018-01-29T11:56:10.236Z,2.27
2018-01-29T11:58:37.764Z,2.33
2018-01-29T12:01:05.582Z,2.20
2018-01-29T12:03:33.181Z,2.40
2018-01-29T12:06:00.659Z,2.90
2018-01-29T12:08:28.196Z,2.20
2018-01-29T12:10:55.821Z,2.10
2018-01-29T12:13:24.246Z,2.23
2018-01-29T12:15:51.795Z,2.33
2018-01-29T12:18:19.456Z,2.50
2018-01-29T12:20:47.099Z,2.50
2018-01-29T12:23:14.592Z,2.20
2018-01-29T12:25:42.102Z,2.30
2018-01-29T12:28:09.676Z,2.20
2018-01-29T12:30:37.160Z,2.17
2018-01-29T12:33:04.764Z,2.27
2018-01-29T12:35:32.227Z,2.30
2018-01-29T12:37:59.722Z,2.30
2018-01-29T12:40:27.183Z,2.20
2018-01-29T12:42:54.913Z,2.30
2018-01-29T12:45:22.470Z,2.63
2018-01-29T12:47:50.088Z,2.30
2018-01-29T12:50:17.565Z,2.30
2018-01-29T12:52:45.058Z,2.30
2018-01-29T12:55:12.545Z,3.00
2018-01-29T12:57:40.060Z,2.30
2018-01-29T13:00:08.399Z,2.30
2018-01-29T13:02:35.978Z,2.37
2018-01-29T13:05:03.962Z,2.60
2018-01-29T13:07:31.633Z,2.70
2018-01-29T13:10:00.094Z,2.50
2018-01-29T13:12:27.637Z,2.40
2018-01-29T13:14:55.172Z,2.97
2018-01-29T13:17:22.726Z,2.37
2018-01-29T13:19:50.258Z,2.60
2018-01-29T13:22:17.844Z,2.57
2018-01-29T13:24:45.448Z,2.60
2018-01-29T13:27:13.034Z,2.23
2018-01-29T13:29:40.718Z,2.40
2018-01-29T13:32:08.610Z,2.60
2018-01-29T13:34:55.653Z,2.37
2018-01-29T13:37:23.583Z,2.50
2018-01-29T13:39:51.178Z,2.40
2018-01-29T13:42:18.732Z,2.53
2018-01-29T13:44:46.251Z,2.90
2018-01-29T13:47:13.955Z,2.63
2018-01-29T13:49:41.530Z,2.60
2018-01-29T13:52:09.046Z,2.50
2018-01-29T13:54:36.572Z,3.00
2018-01-29T13:57:04.099Z,3.00
2018-01-29T13:59:31.561Z,2.60
2018-01-29T14:01:59.420Z,2.50
2018-01-29T14:04:26.922Z,2.87
2018-01-29T14:06:55.355Z,2.60
2018-01-29T14:09:22.899Z,2.93
2018-01-29T14:11:50.395Z,2.87
2018-01-29T14:14:18.883Z,2.90
2018-01-29T14:16:46.423Z,2.90
2018-01-29T14:19:14.006Z,2.90
2018-01-29T14:21:41.752Z,2.97
2018-01-29T14:24:09.299Z,2.90
2018-01-29T14:26:36.798Z,3.10
2018-01-29T14:29:04.429Z,3.10
2018-01-29T14:31:31.992Z,2.70
2018-01-29T14:33:59.565Z,3.13
2018-01-29T14:36:27.937Z,3.03
2018-01-29T14:38:55.500Z,3.17
2018-01-29T14:41:23.019Z,2.70
2018-01-29T14:43:50.603Z,2.90
2018-01-29T14:46:18.179Z,2.60
2018-01-29T14:48:46.431Z,2.83
2018-01-29T14:51:13.958Z,2.90
2018-01-29T14:53:41.493Z,2.90
2018-01-29T14:56:09.309Z,3.40
2018-01-29T14:58:36.911Z,3.00
2018-01-29T15:01:04.458Z,2.83
2018-01-29T15:03:31.938Z,2.80
2018-01-29T15:05:59.492Z,2.90
2018-01-29T15:08:27.116Z,3.37
2018-01-29T15:10:57.523Z,3.20
2018-01-29T15:13:25.217Z,3.03
2018-01-29T15:15:52.720Z,3.23
2018-01-29T15:18:20.217Z,2.87
2018-01-29T15:20:48.687Z,3.27
2018-01-29T15:23:16.191Z,3.37
2018-01-29T15:25:43.671Z,3.07
2018-01-29T15:28:11.217Z,4.00
2018-01-29T15:30:38.698Z,3.10
2018-01-29T15:33:06.215Z,3.20
2018-01-29T15:35:34.231Z,3.07
2018-01-29T15:38:01.762Z,3.10
2018-01-29T15:40:29.259Z,3.27
2018-01-29T15:42:56.742Z,3.17
2018-01-29T15:45:24.328Z,3.07
2018-01-29T15:47:51.802Z,3.40
2018-01-29T15:50:19.284Z,3.17
2018-01-29T15:52:46.828Z,3.37
2018-01-29T15:55:14.452Z,3.63
2018-01-29T15:57:41.913Z,4.20
2018-01-29T16:00:10.406Z,3.63
2018-01-29T16:02:37.967Z,3.73
2018-01-29T16:05:05.451Z,3.50
2018-01-29T16:07:32.972Z,3.43
2018-01-29T16:10:00.479Z,4.00
2018-01-29T16:12:27.991Z,3.40
2018-01-29T16:14:55.477Z,3.60
2018-01-29T16:17:22.981Z,3.67
2018-01-29T16:19:51.254Z,3.80
2018-01-29T16:22:18.774Z,3.30
2018-01-29T16:24:46.304Z,3.57
2018-01-29T16:27:13.769Z,3.90
2018-01-29T16:29:41.388Z,3.50
2018-01-29T16:32:08.887Z,3.20
2018-01-29T16:34:36.482Z,3.40
2018-01-29T16:37:03.947Z,3.87
2018-01-29T16:39:31.500Z,3.70
2018-01-29T16:41:59.086Z,3.67
2018-01-29T16:44:26.620Z,3.67
2018-01-29T16:46:54.213Z,3.47
2018-01-29T16:49:21.894Z,3.50
2018-01-29T16:51:49.575Z,4.00
2018-01-29T16:54:17.144Z,3.63
2018-01-29T16:56:44.683Z,3.37
2018-01-29T16:59:12.159Z,3.30
2018-01-29T17:01:39.694Z,3.90
2018-01-29T17:04:07.188Z,3.43
2018-01-29T17:06:34.714Z,4.10
2018-01-29T17:09:02.247Z,3.60
2018-01-29T17:11:29.749Z,3.70
2018-01-29T17:13:57.370Z,3.90
2018-01-29T17:16:24.931Z,3.90
2018-01-29T17:18:52.466Z,3.40
2018-01-29T17:21:19.985Z,3.50
2018-01-29T17:23:47.450Z,3.37
2018-01-29T17:26:14.957Z,3.20
2018-01-29T17:28:42.456Z,3.30
2018-01-29T17:31:09.961Z,3.33
2018-01-29T17:33:38.160Z,3.27
2018-01-29T17:36:05.747Z,3.20
2018-01-29T17:38:34.163Z,3.43
2018-01-29T17:41:01.678Z,3.23
2018-01-29T17:43:29.284Z,3.27
2018-01-29T17:45:56.779Z,3.07
2018-01-29T17:48:25.427Z,3.30
2018-01-29T17:50:52.982Z,3.20
2018-01-29T17:53:20.538Z,3.10
2018-01-29T17:55:48.019Z,2.90
2018-01-29T17:58:15.557Z,3.10
2018-01-29T18:00:43.084Z,3.13
2018-01-29T18:05:52.564Z,3.10
2018-01-29T18:08:20.131Z,3.10
2018-01-29T18:10:47.685Z,3.20
2018-01-29T18:13:15.322Z,2.83
2018-01-29T18:15:42.959Z,2.70
2018-01-29T18:18:10.479Z,3.10
2018-01-29T18:20:38.907Z,2.80
2018-01-29T18:23:06.754Z,3.10
2018-01-29T18:25:34.364Z,3.17
2018-01-29T18:28:01.922Z,3.10
2018-01-29T18:30:29.644Z,2.80
2018-01-29T18:32:57.228Z,3.00
2018-01-29T18:35:25.012Z,3.00
2018-01-29T18:37:52.562Z,3.00
2018-01-29T18:40:21.190Z,2.70
2018-01-29T18:42:48.717Z,3.03
2018-01-29T18:45:16.377Z,2.83
2018-01-29T18:47:43.930Z,3.40
2018-01-29T18:50:11.439Z,2.80
2018-01-29T18:52:38.924Z,3.27
2018-01-29T18:55:06.474Z,2.80
2018-01-29T18:57:34.021Z,2.87
2018-01-29T19:00:01.636Z,2.93
2018-01-29T19:02:29.978Z,2.87
2018-01-29T19:04:57.436Z,2.77
2018-01-29T19:07:25.154Z,2.97
2018-01-29T19:09:52.711Z,2.97
2018-01-29T19:12:20.308Z,3.03
2018-01-29T19:14:47.795Z,3.00
2018-01-29T19:17:15.339Z,2.73
2018-01-29T19:19:43.994Z,2.90
2018-01-29T19:22:11.508Z,3.10
2018-01-29T19:24:38.994Z,2.80
2018-01-29T19:27:08.462Z,3.13
2018-01-29T19:29:35.934Z,2.90
2018-01-29T19:32:03.546Z,2.80
2018-01-29T19:34:31.179Z,3.23
2018-01-29T19:36:58.777Z,3.00
2018-01-29T19:39:26.337Z,3.03
2018-01-29T19:41:53.886Z,3.10
2018-01-29T19:44:21.459Z,2.93
2018-01-29T19:46:48.972Z,2.60
2018-01-29T19:49:16.725Z,3.03
2018-01-29T19:51:44.280Z,2.80
2018-01-29T19:54:11.796Z,3.00
2018-01-29T19:56:40.155Z,2.70
2018-01-29T19:59:07.635Z,2.77
2018-01-29T20:01:35.339Z,2.63
2018-01-29T20:04:02.916Z,2.87
2018-01-29T20:06:30.491Z,2.60
2018-01-29T20:08:57.997Z,2.43
2018-01-29T20:11:25.538Z,2.60
2018-01-29T20:13:53.091Z,2.80
2018-01-29T20:16:20.640Z,2.80
2018-01-29T20:18:48.131Z,2.77
2018-01-29T20:21:15.682Z,3.03
2018-01-29T20:23:43.299Z,2.77
2018-01-29T20:26:10.824Z,2.97
2018-01-29T20:28:38.374Z,2.90
2018-01-29T20:31:05.878Z,2.80
2018-01-29T20:33:33.422Z,2.67
2018-01-29T20:36:00.987Z,2.97
2018-01-29T20:38:28.519Z,2.93
2018-01-29T20:40:56.211Z,2.50
2018-01-29T20:43:23.733Z,3.03
2018-01-29T20:45:51.272Z,2.87
2018-01-29T20:48:19.495Z,2.40
2018-01-29T20:50:46.960Z,2.80
2018-01-29T20:53:14.470Z,2.50
2018-01-29T20:55:41.928Z,2.53
2018-01-29T20:58:09.458Z,2.30
2018-01-29T21:00:36.995Z,2.40
2018-01-29T21:03:04.457Z,2.80
2018-01-29T21:05:31.980Z,2.40
2018-01-29T21:07:59.513Z,2.77
2018-01-29T21:10:27.107Z,2.50
2018-01-29T21:12:54.633Z,2.50
2018-01-29T21:15:22.304Z,2.67
2018-01-29T21:17:49.795Z,2.43
2018-01-29T21:20:17.263Z,2.80
2018-01-29T21:22:44.788Z,2.70
2018-01-29T21:25:12.305Z,2.70
2018-01-29T21:27:39.800Z,2.63
2018-01-29T21:30:07.316Z,2.70
2018-01-29T21:32:35.026Z,3.17
2018-01-29T21:35:16.882Z,2.87
2018-01-29T21:37:44.498Z,2.70
2018-01-29T21:40:12.466Z,3.00
2018-01-29T21:42:39.931Z,3.00
2018-01-29T21:45:07.436Z,2.87
2018-01-29T21:47:34.994Z,3.20
2018-01-29T21:50:02.524Z,3.10
2018-01-29T21:52:30.532Z,3.27
2018-01-29T21:54:58.243Z,3.70
2018-01-29T21:57:25.914Z,3.67
2018-01-29T21:59:53.440Z,3.20
2018-01-29T22:02:21.009Z,2.97
2018-01-29T22:04:48.534Z,2.67
2018-01-29T22:07:16.199Z,3.10
2018-01-29T22:09:43.744Z,2.70
2018-01-29T22:12:11.303Z,2.20
2018-01-29T22:14:38.838Z,2.07
2018-01-29T22:17:06.389Z,1.90
2018-01-29T22:19:33.955Z,1.80
2018-01-29T22:22:02.215Z,1.70
2018-01-29T22:24:29.752Z,1.97
2018-01-29T22:26:57.274Z,2.00
2018-01-29T22:29:24.994Z,1.70
2018-01-29T22:31:52.593Z,1.80
2018-01-29T22:34:20.075Z,1.70
2018-01-29T22:36:47.555Z,1.70
2018-01-29T22:39:15.128Z,1.77
2018-01-29T22:41:42.750Z,1.80
2018-01-29T22:44:10.259Z,1.70
2018-01-29T22:46:37.761Z,1.90
2018-01-29T22:49:05.268Z,1.80
2018-01-29T22:51:32.747Z,1.80
2018-01-29T22:54:00.253Z,1.87
2018-01-29T22:56:32.738Z,2.00
2018-01-29T22:59:00.249Z,3.17
2018-01-29T23:01:27.830Z,2.10
2018-01-29T23:03:55.290Z,2.50
2018-01-29T23:06:22.934Z,2.17
2018-01-29T23:08:50.541Z,2.00
2018-01-29T23:11:18.028Z,2.40
2018-01-29T23:13:45.626Z,2.40
2018-01-29T23:16:13.106Z,2.30
2018-01-29T23:18:40.651Z,2.50
2018-01-29T23:21:09.378Z,2.27
2018-01-29T23:23:37.116Z,2.40
2018-01-29T23:26:09.587Z,2.10
2018-01-29T23:28:37.159Z,2.90
2018-01-29T23:31:04.707Z,2.30
2018-01-29T23:33:32.205Z,2.10
2018-01-29T23:35:59.694Z,2.20
2018-01-29T23:38:27.312Z,1.87
2018-01-29T23:40:54.793Z,2.00
2018-01-29T23:43:22.454Z,2.50
2018-01-29T23:45:49.935Z,2.10
2018-01-29T23:48:17.432Z,2.30
2018-01-29T23:50:44.924Z,1.80
2018-01-29T23:53:12.459Z,2.20
2018-01-29T23:55:39.936Z,2.30
2018-01-29T23:58:07.390Z,2.10
